sensor_id;sensor_type;location;lat;lon;timestamp;temperature;humidity
4376;DHT22;2202;50.866;12.750;2023-06-26T00:02:15;17.70;85.60
4376;DHT22;2202;50.866;12.750;2023-06-26T00:04:42;17.70;85.60
4376;DHT22;2202;50.866;12.750;2023-06-26T00:07:09;17.60;86.00
4376;DHT22;2202;50.866;12.750;2023-06-26T00:09:36;17.60;85.80
4376;DHT22;2202;50.866;12.750;2023-06-26T00:12:05;17.70;85.40
4376;DHT22;2202;50.866;12.750;2023-06-26T00:14:32;17.70;85.20
4376;DHT22;2202;50.866;12.750;2023-06-26T00:16:59;17.70;85.00
4376;DHT22;2202;50.866;12.750;2023-06-26T00:19:26;17.70;85.00
4376;DHT22;2202;50.866;12.750;2023-06-26T00:21:53;17.70;84.60
4376;DHT22;2202;50.866;12.750;2023-06-26T00:24:20;17.70;84.80
4376;DHT22;2202;50.866;12.750;2023-06-26T00:26:48;17.80;84.40
4376;DHT22;2202;50.866;12.750;2023-06-26T00:29:16;17.80;84.20
4376;DHT22;2202;50.866;12.750;2023-06-26T00:31:43;17.80;84.20
4376;DHT22;2202;50.866;12.750;2023-06-26T00:34:10;17.80;83.80
4376;DHT22;2202;50.866;12.750;2023-06-26T00:36:37;17.80;84.20
4376;DHT22;2202;50.866;12.750;2023-06-26T00:39:04;17.80;84.20
4376;DHT22;2202;50.866;12.750;2023-06-26T00:41:31;17.80;84.00
4376;DHT22;2202;50.866;12.750;2023-06-26T00:43:57;17.80;84.20
4376;DHT22;2202;50.866;12.750;2023-06-26T00:46:26;17.80;84.00
4376;DHT22;2202;50.866;12.750;2023-06-26T00:48:53;17.80;84.00
4376;DHT22;2202;50.866;12.750;2023-06-26T00:51:20;17.80;84.00
4376;DHT22;2202;50.866;12.750;2023-06-26T00:53:48;17.70;84.20
4376;DHT22;2202;50.866;12.750;2023-06-26T00:56:15;17.70;84.40
4376;DHT22;2202;50.866;12.750;2023-06-26T00:58:44;17.70;84.60
4376;DHT22;2202;50.866;12.750;2023-06-26T01:01:11;17.70;84.80
4376;DHT22;2202;50.866;12.750;2023-06-26T01:03:44;17.70;84.80
4376;DHT22;2202;50.866;12.750;2023-06-26T01:06:13;17.70;85.00
4376;DHT22;2202;50.866;12.750;2023-06-26T01:08:41;17.70;84.60
4376;DHT22;2202;50.866;12.750;2023-06-26T01:11:09;17.80;84.60
4376;DHT22;2202;50.866;12.750;2023-06-26T01:13:36;17.80;84.40
4376;DHT22;2202;50.866;12.750;2023-06-26T01:16:04;17.80;84.40
4376;DHT22;2202;50.866;12.750;2023-06-26T01:18:32;17.80;84.40
4376;DHT22;2202;50.866;12.750;2023-06-26T01:21:02;17.80;84.40
4376;DHT22;2202;50.866;12.750;2023-06-26T01:23:38;17.70;84.60
4376;DHT22;2202;50.866;12.750;2023-06-26T01:26:15;17.70;84.80
4376;DHT22;2202;50.866;12.750;2023-06-26T01:28:43;17.70;85.00
4376;DHT22;2202;50.866;12.750;2023-06-26T01:31:11;17.70;85.00
4376;DHT22;2202;50.866;12.750;2023-06-26T01:33:40;17.70;84.80
4376;DHT22;2202;50.866;12.750;2023-06-26T01:36:08;17.70;84.60
4376;DHT22;2202;50.866;12.750;2023-06-26T01:38:34;17.70;84.60
4376;DHT22;2202;50.866;12.750;2023-06-26T01:41:02;17.60;84.60
4376;DHT22;2202;50.866;12.750;2023-06-26T01:43:36;17.60;85.00
4376;DHT22;2202;50.866;12.750;2023-06-26T01:46:11;17.60;84.80
4376;DHT22;2202;50.866;12.750;2023-06-26T01:48:49;17.50;85.00
4376;DHT22;2202;50.866;12.750;2023-06-26T01:51:19;17.50;84.80
4376;DHT22;2202;50.866;12.750;2023-06-26T01:53:52;17.40;85.00
4376;DHT22;2202;50.866;12.750;2023-06-26T01:56:20;17.40;85.00
4376;DHT22;2202;50.866;12.750;2023-06-26T01:58:50;17.40;85.00
4376;DHT22;2202;50.866;12.750;2023-06-26T02:01:20;17.40;85.00
4376;DHT22;2202;50.866;12.750;2023-06-26T02:03:47;17.40;85.20
4376;DHT22;2202;50.866;12.750;2023-06-26T02:06:14;17.30;85.40
4376;DHT22;2202;50.866;12.750;2023-06-26T02:08:42;17.30;85.60
4376;DHT22;2202;50.866;12.750;2023-06-26T02:11:08;17.20;86.00
4376;DHT22;2202;50.866;12.750;2023-06-26T02:13:35;17.20;86.40
4376;DHT22;2202;50.866;12.750;2023-06-26T02:16:04;17.20;86.40
4376;DHT22;2202;50.866;12.750;2023-06-26T02:18:30;17.10;86.60
4376;DHT22;2202;50.866;12.750;2023-06-26T02:20:57;17.10;87.00
4376;DHT22;2202;50.866;12.750;2023-06-26T02:23:24;17.00;87.00
4376;DHT22;2202;50.866;12.750;2023-06-26T02:25:51;17.00;87.20
4376;DHT22;2202;50.866;12.750;2023-06-26T02:28:18;17.00;87.00
4376;DHT22;2202;50.866;12.750;2023-06-26T02:30:44;16.90;87.00
4376;DHT22;2202;50.866;12.750;2023-06-26T02:33:13;16.90;87.40
4376;DHT22;2202;50.866;12.750;2023-06-26T02:35:39;16.90;87.80
4376;DHT22;2202;50.866;12.750;2023-06-26T02:38:06;16.80;88.00
4376;DHT22;2202;50.866;12.750;2023-06-26T02:40:33;16.80;88.40
4376;DHT22;2202;50.866;12.750;2023-06-26T02:43:00;16.70;88.60
4376;DHT22;2202;50.866;12.750;2023-06-26T02:45:27;16.70;88.80
4376;DHT22;2202;50.866;12.750;2023-06-26T02:47:54;16.60;88.80
4376;DHT22;2202;50.866;12.750;2023-06-26T02:50:22;16.60;89.00
4376;DHT22;2202;50.866;12.750;2023-06-26T02:52:49;16.50;88.80
4376;DHT22;2202;50.866;12.750;2023-06-26T02:55:18;16.50;88.80
4376;DHT22;2202;50.866;12.750;2023-06-26T02:57:44;16.40;89.00
4376;DHT22;2202;50.866;12.750;2023-06-26T03:00:13;16.40;89.00
4376;DHT22;2202;50.866;12.750;2023-06-26T03:02:39;16.30;89.00
4376;DHT22;2202;50.866;12.750;2023-06-26T03:05:07;16.30;89.00
4376;DHT22;2202;50.866;12.750;2023-06-26T03:07:35;16.30;89.00
4376;DHT22;2202;50.866;12.750;2023-06-26T03:10:02;16.30;89.00
4376;DHT22;2202;50.866;12.750;2023-06-26T03:12:29;16.20;89.00
4376;DHT22;2202;50.866;12.750;2023-06-26T03:14:55;16.20;89.40
4376;DHT22;2202;50.866;12.750;2023-06-26T03:17:22;16.20;89.40
4376;DHT22;2202;50.866;12.750;2023-06-26T03:19:49;16.10;89.80
4376;DHT22;2202;50.866;12.750;2023-06-26T03:22:16;16.10;90.00
4376;DHT22;2202;50.866;12.750;2023-06-26T03:24:45;16.10;90.10
4376;DHT22;2202;50.866;12.750;2023-06-26T03:27:12;16.10;90.20
4376;DHT22;2202;50.866;12.750;2023-06-26T03:29:39;16.00;90.30
4376;DHT22;2202;50.866;12.750;2023-06-26T03:32:06;16.00;90.40
4376;DHT22;2202;50.866;12.750;2023-06-26T03:34:33;16.00;90.60
4376;DHT22;2202;50.866;12.750;2023-06-26T03:37:00;16.00;90.80
4376;DHT22;2202;50.866;12.750;2023-06-26T03:39:27;16.00;90.90
4376;DHT22;2202;50.866;12.750;2023-06-26T03:41:55;16.00;91.00
4376;DHT22;2202;50.866;12.750;2023-06-26T03:44:25;16.00;91.20
4376;DHT22;2202;50.866;12.750;2023-06-26T03:46:52;16.00;91.20
4376;DHT22;2202;50.866;12.750;2023-06-26T03:49:19;16.00;91.30
4376;DHT22;2202;50.866;12.750;2023-06-26T03:51:46;16.00;91.40
4376;DHT22;2202;50.866;12.750;2023-06-26T03:54:13;16.10;91.50
4376;DHT22;2202;50.866;12.750;2023-06-26T03:56:40;16.10;91.70
4376;DHT22;2202;50.866;12.750;2023-06-26T03:59:09;16.10;91.70
4376;DHT22;2202;50.866;12.750;2023-06-26T04:01:36;16.10;91.70
4376;DHT22;2202;50.866;12.750;2023-06-26T04:04:03;16.20;91.80
4376;DHT22;2202;50.866;12.750;2023-06-26T04:06:30;16.20;91.90
4376;DHT22;2202;50.866;12.750;2023-06-26T04:08:58;16.30;92.00
4376;DHT22;2202;50.866;12.750;2023-06-26T04:11:25;16.30;92.10
4376;DHT22;2202;50.866;12.750;2023-06-26T04:13:52;16.40;92.00
4376;DHT22;2202;50.866;12.750;2023-06-26T04:16:20;16.50;92.10
4376;DHT22;2202;50.866;12.750;2023-06-26T04:18:51;16.50;92.00
4376;DHT22;2202;50.866;12.750;2023-06-26T04:21:18;16.70;91.40
4376;DHT22;2202;50.866;12.750;2023-06-26T04:23:45;16.80;91.00
4376;DHT22;2202;50.866;12.750;2023-06-26T04:26:13;16.90;90.30
4376;DHT22;2202;50.866;12.750;2023-06-26T04:28:40;17.10;90.10
4376;DHT22;2202;50.866;12.750;2023-06-26T04:31:07;17.20;88.20
4376;DHT22;2202;50.866;12.750;2023-06-26T04:33:35;17.40;86.80
4376;DHT22;2202;50.866;12.750;2023-06-26T04:36:03;17.50;86.20
4376;DHT22;2202;50.866;12.750;2023-06-26T04:38:29;17.70;85.00
4376;DHT22;2202;50.866;12.750;2023-06-26T04:40:56;17.80;84.00
4376;DHT22;2202;50.866;12.750;2023-06-26T04:43:23;17.90;83.80
4376;DHT22;2202;50.866;12.750;2023-06-26T04:45:50;18.10;82.20
4376;DHT22;2202;50.866;12.750;2023-06-26T04:48:17;18.30;82.00
4376;DHT22;2202;50.866;12.750;2023-06-26T04:50:46;18.40;80.80
4376;DHT22;2202;50.866;12.750;2023-06-26T04:53:18;18.50;80.40
4376;DHT22;2202;50.866;12.750;2023-06-26T04:55:45;18.70;78.80
4376;DHT22;2202;50.866;12.750;2023-06-26T04:58:12;18.80;78.60
4376;DHT22;2202;50.866;12.750;2023-06-26T05:00:38;18.90;78.40
4376;DHT22;2202;50.866;12.750;2023-06-26T05:03:08;19.00;77.40
4376;DHT22;2202;50.866;12.750;2023-06-26T05:05:34;19.20;77.60
4376;DHT22;2202;50.866;12.750;2023-06-26T05:08:14;19.30;76.80
4376;DHT22;2202;50.866;12.750;2023-06-26T05:10:41;19.40;75.80
4376;DHT22;2202;50.866;12.750;2023-06-26T05:13:08;19.50;74.60
4376;DHT22;2202;50.866;12.750;2023-06-26T05:15:35;19.70;74.40
4376;DHT22;2202;50.866;12.750;2023-06-26T05:18:06;19.80;73.00
4376;DHT22;2202;50.866;12.750;2023-06-26T05:20:36;19.90;71.60
4376;DHT22;2202;50.866;12.750;2023-06-26T05:23:03;20.10;71.80
4376;DHT22;2202;50.866;12.750;2023-06-26T05:25:33;20.20;70.60
4376;DHT22;2202;50.866;12.750;2023-06-26T05:28:01;20.30;69.60
4376;DHT22;2202;50.866;12.750;2023-06-26T05:30:28;20.40;69.60
4376;DHT22;2202;50.866;12.750;2023-06-26T05:32:57;20.50;69.40
4376;DHT22;2202;50.866;12.750;2023-06-26T05:35:28;20.60;69.20
4376;DHT22;2202;50.866;12.750;2023-06-26T05:37:55;20.70;68.00
4376;DHT22;2202;50.866;12.750;2023-06-26T05:40:23;20.80;66.80
4376;DHT22;2202;50.866;12.750;2023-06-26T05:42:52;20.90;66.60
4376;DHT22;2202;50.866;12.750;2023-06-26T05:45:19;21.00;68.60
4376;DHT22;2202;50.866;12.750;2023-06-26T05:47:46;21.10;68.60
4376;DHT22;2202;50.866;12.750;2023-06-26T05:50:14;21.20;66.80
4376;DHT22;2202;50.866;12.750;2023-06-26T05:52:41;21.40;66.60
4376;DHT22;2202;50.866;12.750;2023-06-26T05:55:10;21.50;63.20
4376;DHT22;2202;50.866;12.750;2023-06-26T05:57:38;21.70;65.00
4376;DHT22;2202;50.866;12.750;2023-06-26T06:00:08;21.80;61.20
4376;DHT22;2202;50.866;12.750;2023-06-26T06:02:36;21.90;61.40
4376;DHT22;2202;50.866;12.750;2023-06-26T06:05:03;22.00;60.80
4376;DHT22;2202;50.866;12.750;2023-06-26T06:07:31;22.10;59.60
4376;DHT22;2202;50.866;12.750;2023-06-26T06:09:58;22.20;59.60
4376;DHT22;2202;50.866;12.750;2023-06-26T06:12:25;22.30;59.40
4376;DHT22;2202;50.866;12.750;2023-06-26T06:14:52;22.30;58.50
4376;DHT22;2202;50.866;12.750;2023-06-26T06:17:20;22.40;59.00
4376;DHT22;2202;50.866;12.750;2023-06-26T06:19:47;22.40;61.20
4376;DHT22;2202;50.866;12.750;2023-06-26T06:22:14;22.50;60.80
4376;DHT22;2202;50.866;12.750;2023-06-26T06:24:42;22.60;59.80
4376;DHT22;2202;50.866;12.750;2023-06-26T06:27:09;22.60;60.10
4376;DHT22;2202;50.866;12.750;2023-06-26T06:29:36;22.70;58.30
4376;DHT22;2202;50.866;12.750;2023-06-26T06:32:03;22.90;61.20
4376;DHT22;2202;50.866;12.750;2023-06-26T06:34:31;23.00;59.00
4376;DHT22;2202;50.866;12.750;2023-06-26T06:36:58;23.20;58.50
4376;DHT22;2202;50.866;12.750;2023-06-26T06:39:25;23.30;58.20
4376;DHT22;2202;50.866;12.750;2023-06-26T06:41:52;23.50;56.90
4376;DHT22;2202;50.866;12.750;2023-06-26T06:44:19;23.50;55.10
4376;DHT22;2202;50.866;12.750;2023-06-26T06:46:45;23.70;55.00
4376;DHT22;2202;50.866;12.750;2023-06-26T06:49:12;23.90;55.00
4376;DHT22;2202;50.866;12.750;2023-06-26T06:51:40;24.10;52.80
4376;DHT22;2202;50.866;12.750;2023-06-26T06:54:07;24.20;54.30
4376;DHT22;2202;50.866;12.750;2023-06-26T06:56:34;24.40;55.70
4376;DHT22;2202;50.866;12.750;2023-06-26T06:59:01;24.60;55.90
4376;DHT22;2202;50.866;12.750;2023-06-26T07:01:28;24.70;52.30
4376;DHT22;2202;50.866;12.750;2023-06-26T07:03:55;24.80;53.40
4376;DHT22;2202;50.866;12.750;2023-06-26T07:06:23;24.90;53.90
4376;DHT22;2202;50.866;12.750;2023-06-26T07:08:51;25.10;54.10
4376;DHT22;2202;50.866;12.750;2023-06-26T07:11:18;25.20;52.80
4376;DHT22;2202;50.866;12.750;2023-06-26T07:13:44;25.20;50.90
4376;DHT22;2202;50.866;12.750;2023-06-26T07:16:11;25.30;50.90
4376;DHT22;2202;50.866;12.750;2023-06-26T07:18:40;25.50;50.30
4376;DHT22;2202;50.866;12.750;2023-06-26T07:21:07;25.50;48.90
4376;DHT22;2202;50.866;12.750;2023-06-26T07:23:34;25.50;50.00
4376;DHT22;2202;50.866;12.750;2023-06-26T07:26:02;25.50;52.80
4376;DHT22;2202;50.866;12.750;2023-06-26T07:28:29;25.70;49.60
4376;DHT22;2202;50.866;12.750;2023-06-26T07:30:56;25.90;50.50
4376;DHT22;2202;50.866;12.750;2023-06-26T07:33:23;26.20;53.00
4376;DHT22;2202;50.866;12.750;2023-06-26T07:35:50;26.40;48.80
4376;DHT22;2202;50.866;12.750;2023-06-26T07:38:16;26.40;47.20
4376;DHT22;2202;50.866;12.750;2023-06-26T07:40:43;26.50;49.30
4376;DHT22;2202;50.866;12.750;2023-06-26T07:43:11;26.80;47.90
4376;DHT22;2202;50.866;12.750;2023-06-26T07:45:38;27.00;45.70
4376;DHT22;2202;50.866;12.750;2023-06-26T07:48:06;27.10;45.40
4376;DHT22;2202;50.866;12.750;2023-06-26T07:50:34;27.00;44.50
4376;DHT22;2202;50.866;12.750;2023-06-26T07:53:01;26.90;48.00
4376;DHT22;2202;50.866;12.750;2023-06-26T07:55:28;27.20;47.20
4376;DHT22;2202;50.866;12.750;2023-06-26T07:57:55;27.30;46.40
4376;DHT22;2202;50.866;12.750;2023-06-26T08:00:23;27.40;45.00
4376;DHT22;2202;50.866;12.750;2023-06-26T08:02:50;27.60;45.40
4376;DHT22;2202;50.866;12.750;2023-06-26T08:05:17;27.70;43.20
4376;DHT22;2202;50.866;12.750;2023-06-26T08:07:44;28.00;44.80
4376;DHT22;2202;50.866;12.750;2023-06-26T08:10:11;28.10;44.30
4376;DHT22;2202;50.866;12.750;2023-06-26T08:12:38;28.30;49.50
4376;DHT22;2202;50.866;12.750;2023-06-26T08:15:06;28.60;41.80
4376;DHT22;2202;50.866;12.750;2023-06-26T08:17:35;28.40;39.30
4376;DHT22;2202;50.866;12.750;2023-06-26T08:20:03;28.10;41.30
4376;DHT22;2202;50.866;12.750;2023-06-26T08:22:31;28.10;42.40
4376;DHT22;2202;50.866;12.750;2023-06-26T08:24:57;28.00;41.80
4376;DHT22;2202;50.866;12.750;2023-06-26T08:27:24;27.80;44.80
4376;DHT22;2202;50.866;12.750;2023-06-26T08:29:51;27.90;43.60
4376;DHT22;2202;50.866;12.750;2023-06-26T08:32:18;28.20;42.90
4376;DHT22;2202;50.866;12.750;2023-06-26T08:34:46;28.40;43.10
4376;DHT22;2202;50.866;12.750;2023-06-26T08:37:13;28.40;41.80
4376;DHT22;2202;50.866;12.750;2023-06-26T08:39:40;28.40;42.50
4376;DHT22;2202;50.866;12.750;2023-06-26T08:42:07;28.00;44.00
4376;DHT22;2202;50.866;12.750;2023-06-26T08:44:35;28.10;47.50
4376;DHT22;2202;50.866;12.750;2023-06-26T08:47:02;28.40;40.80
4376;DHT22;2202;50.866;12.750;2023-06-26T08:49:34;28.40;39.90
4376;DHT22;2202;50.866;12.750;2023-06-26T08:52:11;28.40;39.90
4376;DHT22;2202;50.866;12.750;2023-06-26T08:54:45;28.20;40.40
4376;DHT22;2202;50.866;12.750;2023-06-26T08:57:15;28.00;41.10
4376;DHT22;2202;50.866;12.750;2023-06-26T08:59:42;28.00;41.50
4376;DHT22;2202;50.866;12.750;2023-06-26T09:02:11;28.10;39.90
4376;DHT22;2202;50.866;12.750;2023-06-26T09:04:39;28.00;40.90
4376;DHT22;2202;50.866;12.750;2023-06-26T09:07:08;28.00;42.70
4376;DHT22;2202;50.866;12.750;2023-06-26T09:09:35;28.00;39.50
4376;DHT22;2202;50.866;12.750;2023-06-26T09:12:02;28.10;44.30
4376;DHT22;2202;50.866;12.750;2023-06-26T09:14:29;28.40;43.40
4376;DHT22;2202;50.866;12.750;2023-06-26T09:16:56;28.50;39.00
4376;DHT22;2202;50.866;12.750;2023-06-26T09:19:23;28.60;40.20
4376;DHT22;2202;50.866;12.750;2023-06-26T09:21:50;28.60;40.20
4376;DHT22;2202;50.866;12.750;2023-06-26T09:24:19;28.60;36.90
4376;DHT22;2202;50.866;12.750;2023-06-26T09:26:49;28.40;41.10
4376;DHT22;2202;50.866;12.750;2023-06-26T09:29:17;28.70;41.70
4376;DHT22;2202;50.866;12.750;2023-06-26T09:31:44;28.90;39.70
4376;DHT22;2202;50.866;12.750;2023-06-26T09:34:11;29.00;37.90
4376;DHT22;2202;50.866;12.750;2023-06-26T09:36:38;28.90;39.70
4376;DHT22;2202;50.866;12.750;2023-06-26T09:39:08;29.00;42.70
4376;DHT22;2202;50.866;12.750;2023-06-26T09:41:38;28.70;40.90
4376;DHT22;2202;50.866;12.750;2023-06-26T09:44:06;28.90;40.60
4376;DHT22;2202;50.866;12.750;2023-06-26T09:46:38;29.20;44.50
4376;DHT22;2202;50.866;12.750;2023-06-26T09:49:06;29.40;37.40
4376;DHT22;2202;50.866;12.750;2023-06-26T09:51:33;29.30;37.60
4376;DHT22;2202;50.866;12.750;2023-06-26T09:54:01;29.40;36.90
4376;DHT22;2202;50.866;12.750;2023-06-26T09:56:29;29.40;39.50
4376;DHT22;2202;50.866;12.750;2023-06-26T09:58:59;29.70;38.10
4376;DHT22;2202;50.866;12.750;2023-06-26T10:01:27;29.80;35.80
4376;DHT22;2202;50.866;12.750;2023-06-26T10:03:54;29.20;37.00
4376;DHT22;2202;50.866;12.750;2023-06-26T10:06:27;29.40;40.40
4376;DHT22;2202;50.866;12.750;2023-06-26T10:08:55;29.70;38.50
4376;DHT22;2202;50.866;12.750;2023-06-26T10:11:23;29.60;35.40
4376;DHT22;2202;50.866;12.750;2023-06-26T10:13:54;29.80;35.40
4376;DHT22;2202;50.866;12.750;2023-06-26T10:16:25;30.10;37.00
4376;DHT22;2202;50.866;12.750;2023-06-26T10:18:56;29.70;32.20
4376;DHT22;2202;50.866;12.750;2023-06-26T10:21:26;29.80;35.80
4376;DHT22;2202;50.866;12.750;2023-06-26T10:23:56;29.90;30.80
4376;DHT22;2202;50.866;12.750;2023-06-26T10:26:24;29.70;34.90
4376;DHT22;2202;50.866;12.750;2023-06-26T10:28:54;29.70;39.50
4376;DHT22;2202;50.866;12.750;2023-06-26T10:31:26;29.80;33.70
4376;DHT22;2202;50.866;12.750;2023-06-26T10:33:55;29.50;32.60
4376;DHT22;2202;50.866;12.750;2023-06-26T10:36:28;29.60;38.80
4376;DHT22;2202;50.866;12.750;2023-06-26T10:38:57;29.90;38.10
4376;DHT22;2202;50.866;12.750;2023-06-26T10:41:25;30.10;34.00
4376;DHT22;2202;50.866;12.750;2023-06-26T10:44:06;29.90;33.00
4376;DHT22;2202;50.866;12.750;2023-06-26T10:46:48;29.60;36.70
4376;DHT22;2202;50.866;12.750;2023-06-26T10:49:15;29.80;31.50
4376;DHT22;2202;50.866;12.750;2023-06-26T10:51:46;29.70;31.20
4376;DHT22;2202;50.866;12.750;2023-06-26T10:54:14;29.40;32.40
4376;DHT22;2202;50.866;12.750;2023-06-26T10:56:42;29.40;33.00
4376;DHT22;2202;50.866;12.750;2023-06-26T10:59:17;29.80;36.50
4376;DHT22;2202;50.866;12.750;2023-06-26T11:01:47;30.10;34.20
4376;DHT22;2202;50.866;12.750;2023-06-26T11:04:36;29.80;33.80
4376;DHT22;2202;50.866;12.750;2023-06-26T11:07:17;30.00;33.00
4376;DHT22;2202;50.866;12.750;2023-06-26T11:09:55;30.00;30.60
4376;DHT22;2202;50.866;12.750;2023-06-26T11:12:36;29.90;36.50
4376;DHT22;2202;50.866;12.750;2023-06-26T11:15:04;30.20;34.70
4376;DHT22;2202;50.866;12.750;2023-06-26T11:17:32;30.00;33.10
4376;DHT22;2202;50.866;12.750;2023-06-26T11:19:59;30.00;32.60
4376;DHT22;2202;50.866;12.750;2023-06-26T11:22:27;29.80;36.30
4376;DHT22;2202;50.866;12.750;2023-06-26T11:24:54;29.90;35.10
4376;DHT22;2202;50.866;12.750;2023-06-26T11:34:08;30.50;34.90
4376;DHT22;2202;50.866;12.750;2023-06-26T11:36:36;30.80;37.40
4376;DHT22;2202;50.866;12.750;2023-06-26T11:39:04;30.70;37.00
4376;DHT22;2202;50.866;12.750;2023-06-26T11:41:32;30.70;35.80
4376;DHT22;2202;50.866;12.750;2023-06-26T11:44:01;30.90;32.80
4376;DHT22;2202;50.866;12.750;2023-06-26T11:46:28;31.10;33.80
4376;DHT22;2202;50.866;12.750;2023-06-26T11:48:55;30.40;29.80
4376;DHT22;2202;50.866;12.750;2023-06-26T11:51:23;30.50;34.20
4376;DHT22;2202;50.866;12.750;2023-06-26T11:53:50;30.50;31.40
4376;DHT22;2202;50.866;12.750;2023-06-26T11:56:18;30.40;35.40
4376;DHT22;2202;50.866;12.750;2023-06-26T11:58:59;30.50;32.10
4376;DHT22;2202;50.866;12.750;2023-06-26T12:01:31;30.50;30.30
4376;DHT22;2202;50.866;12.750;2023-06-26T12:03:59;30.40;31.70
4376;DHT22;2202;50.866;12.750;2023-06-26T12:06:29;30.90;41.50
4376;DHT22;2202;50.866;12.750;2023-06-26T12:08:58;31.40;33.30
4376;DHT22;2202;50.866;12.750;2023-06-26T12:11:27;31.10;28.80
4376;DHT22;2202;50.866;12.750;2023-06-26T12:13:55;30.20;28.70
4376;DHT22;2202;50.866;12.750;2023-06-26T12:16:22;30.10;29.90
4376;DHT22;2202;50.866;12.750;2023-06-26T12:18:49;30.40;33.00
4376;DHT22;2202;50.866;12.750;2023-06-26T12:21:47;30.70;33.00
4376;DHT22;2202;50.866;12.750;2023-06-26T12:24:19;31.00;34.40
4376;DHT22;2202;50.866;12.750;2023-06-26T12:26:49;30.80;29.30
4376;DHT22;2202;50.866;12.750;2023-06-26T12:29:18;30.70;29.90
4376;DHT22;2202;50.866;12.750;2023-06-26T12:31:48;31.00;31.90
4376;DHT22;2202;50.866;12.750;2023-06-26T12:34:19;31.30;28.60
4376;DHT22;2202;50.866;12.750;2023-06-26T12:36:49;30.90;27.90
4376;DHT22;2202;50.866;12.750;2023-06-26T12:39:17;30.90;28.40
4376;DHT22;2202;50.866;12.750;2023-06-26T12:41:45;30.80;29.50
4376;DHT22;2202;50.866;12.750;2023-06-26T12:44:19;30.50;30.30
4376;DHT22;2202;50.866;12.750;2023-06-26T12:46:48;31.00;29.80
4376;DHT22;2202;50.866;12.750;2023-06-26T12:49:16;31.30;28.70
4376;DHT22;2202;50.866;12.750;2023-06-26T12:51:43;31.00;29.10
4376;DHT22;2202;50.866;12.750;2023-06-26T12:54:11;31.30;29.80
4376;DHT22;2202;50.866;12.750;2023-06-26T12:56:38;31.50;29.10
4376;DHT22;2202;50.866;12.750;2023-06-26T12:59:05;31.40;28.40
4376;DHT22;2202;50.866;12.750;2023-06-26T13:01:31;31.30;28.00
4376;DHT22;2202;50.866;12.750;2023-06-26T13:03:59;31.10;28.90
4376;DHT22;2202;50.866;12.750;2023-06-26T13:06:26;31.10;29.80
4376;DHT22;2202;50.866;12.750;2023-06-26T13:08:53;31.20;30.10
4376;DHT22;2202;50.866;12.750;2023-06-26T13:11:21;31.40;29.00
4376;DHT22;2202;50.866;12.750;2023-06-26T13:13:48;31.20;30.80
4376;DHT22;2202;50.866;12.750;2023-06-26T13:16:16;31.20;31.40
4376;DHT22;2202;50.866;12.750;2023-06-26T13:18:44;30.80;32.10
4376;DHT22;2202;50.866;12.750;2023-06-26T13:21:11;30.30;34.20
4376;DHT22;2202;50.866;12.750;2023-06-26T13:23:38;30.50;34.90
4376;DHT22;2202;50.866;12.750;2023-06-26T13:26:05;30.90;33.70
4376;DHT22;2202;50.866;12.750;2023-06-26T13:28:33;31.00;37.20
4376;DHT22;2202;50.866;12.750;2023-06-26T13:31:00;30.80;32.80
4376;DHT22;2202;50.866;12.750;2023-06-26T13:33:27;30.60;29.30
4376;DHT22;2202;50.866;12.750;2023-06-26T13:35:54;30.80;33.00
4376;DHT22;2202;50.866;12.750;2023-06-26T13:38:21;30.90;36.30
4376;DHT22;2202;50.866;12.750;2023-06-26T13:40:50;31.10;31.20
4376;DHT22;2202;50.866;12.750;2023-06-26T13:43:17;31.30;31.00
4376;DHT22;2202;50.866;12.750;2023-06-26T13:45:45;31.30;31.40
4376;DHT22;2202;50.866;12.750;2023-06-26T13:48:12;31.20;32.10
4376;DHT22;2202;50.866;12.750;2023-06-26T13:50:39;30.90;30.30
4376;DHT22;2202;50.866;12.750;2023-06-26T13:53:06;30.70;31.00
4376;DHT22;2202;50.866;12.750;2023-06-26T13:55:33;30.90;32.20
4376;DHT22;2202;50.866;12.750;2023-06-26T13:58:00;31.00;33.10
4376;DHT22;2202;50.866;12.750;2023-06-26T14:00:31;31.10;31.90
4376;DHT22;2202;50.866;12.750;2023-06-26T14:03:00;30.50;30.50
4376;DHT22;2202;50.866;12.750;2023-06-26T14:05:28;30.60;33.10
4376;DHT22;2202;50.866;12.750;2023-06-26T14:07:55;30.90;31.90
4376;DHT22;2202;50.866;12.750;2023-06-26T14:10:22;30.70;30.10
4376;DHT22;2202;50.866;12.750;2023-06-26T14:12:50;30.50;34.60
4376;DHT22;2202;50.866;12.750;2023-06-26T14:15:17;30.60;34.60
4376;DHT22;2202;50.866;12.750;2023-06-26T14:17:43;30.80;31.20
4376;DHT22;2202;50.866;12.750;2023-06-26T14:20:12;31.00;32.10
4376;DHT22;2202;50.866;12.750;2023-06-26T14:22:40;31.10;33.80
4376;DHT22;2202;50.866;12.750;2023-06-26T14:25:08;31.10;31.90
4376;DHT22;2202;50.866;12.750;2023-06-26T14:27:35;31.10;29.10
4376;DHT22;2202;50.866;12.750;2023-06-26T14:30:03;31.20;29.00
4376;DHT22;2202;50.866;12.750;2023-06-26T14:32:31;31.00;29.80
4376;DHT22;2202;50.866;12.750;2023-06-26T14:34:58;30.90;30.30
4376;DHT22;2202;50.866;12.750;2023-06-26T14:37:29;30.70;30.80
4376;DHT22;2202;50.866;12.750;2023-06-26T14:39:56;30.40;31.00
4376;DHT22;2202;50.866;12.750;2023-06-26T14:42:23;30.20;33.10
4376;DHT22;2202;50.866;12.750;2023-06-26T14:44:50;30.10;31.90
4376;DHT22;2202;50.866;12.750;2023-06-26T14:47:17;29.90;33.50
4376;DHT22;2202;50.866;12.750;2023-06-26T14:49:43;29.60;34.20
4376;DHT22;2202;50.866;12.750;2023-06-26T14:52:10;29.50;34.40
4376;DHT22;2202;50.866;12.750;2023-06-26T14:54:39;29.30;33.80
4376;DHT22;2202;50.866;12.750;2023-06-26T14:57:06;29.30;34.40
4376;DHT22;2202;50.866;12.750;2023-06-26T14:59:33;29.10;34.20
4376;DHT22;2202;50.866;12.750;2023-06-26T15:02:00;29.00;35.60
4376;DHT22;2202;50.866;12.750;2023-06-26T15:04:27;29.00;36.00
4376;DHT22;2202;50.866;12.750;2023-06-26T15:06:56;28.90;36.70
4376;DHT22;2202;50.866;12.750;2023-06-26T15:09:23;28.20;40.60
4376;DHT22;2202;50.866;12.750;2023-06-26T15:11:51;25.50;62.00
4376;DHT22;2202;50.866;12.750;2023-06-26T15:14:18;23.40;73.60
4376;DHT22;2202;50.866;12.750;2023-06-26T15:16:45;22.40;81.00
4376;DHT22;2202;50.866;12.750;2023-06-26T15:19:12;22.10;85.00
4376;DHT22;2202;50.866;12.750;2023-06-26T15:21:39;22.10;87.40
4376;DHT22;2202;50.866;12.750;2023-06-26T15:24:06;22.20;86.80
4376;DHT22;2202;50.866;12.750;2023-06-26T15:26:33;22.40;84.40
4376;DHT22;2202;50.866;12.750;2023-06-26T15:29:01;22.20;85.60
4376;DHT22;2202;50.866;12.750;2023-06-26T15:31:28;22.30;86.00
4376;DHT22;2202;50.866;12.750;2023-06-26T15:33:56;22.40;85.40
4376;DHT22;2202;50.866;12.750;2023-06-26T15:36:22;22.30;84.40
4376;DHT22;2202;50.866;12.750;2023-06-26T15:38:49;22.30;84.60
4376;DHT22;2202;50.866;12.750;2023-06-26T15:41:16;22.20;84.60
4376;DHT22;2202;50.866;12.750;2023-06-26T15:43:43;22.10;86.00
4376;DHT22;2202;50.866;12.750;2023-06-26T15:46:11;22.10;87.40
4376;DHT22;2202;50.866;12.750;2023-06-26T15:48:38;22.10;87.40
4376;DHT22;2202;50.866;12.750;2023-06-26T15:51:05;22.10;87.60
4376;DHT22;2202;50.866;12.750;2023-06-26T15:53:36;22.30;87.40
4376;DHT22;2202;50.866;12.750;2023-06-26T15:56:05;22.50;87.40
4376;DHT22;2202;50.866;12.750;2023-06-26T15:58:32;22.80;84.00